EGVP

Middle Wallop Airfield Airport

Middle Wallop, United Kingdom
TAF EGVP 221341Z 2215/2224 25008KT 9999 FEW010 SCT025 TEMPO 2215/2218 7000 -SHRA BKN018 PROB30 TEMPO 2215/2217 4000 SHRASN BKN010CB
Issued Valid From Valid To
Jan-22 @ 13:41 UTC
(4 hours ago)
Jan-22 @ 15:00 UTC
(3 hours ago)
Jan-23 @ 00:00 UTC
(in 6 hours)
Jan-22 @ 15:00 to Jan-23 @ 00:00
TAF EGVP 221341Z 2215/2224 25008KT 9999 FEW010 SCT025
Wind Visibility Clouds
250° at 8 knots 10,000+ meters
  • Few at 1,000' AGL
  • Scattered at 2,500' AGL
Expired Click to View Jan-22 @ 15:00 to Jan-22 @ 17:00
PROB30 TEMPO 2215/2217 4000 SHRASN BKN010CB
Visibility Clouds Conditions
4,007 meters
  • Broken at 1,000' AGL
  • Rain
  • Snow
Temporary Jan-22 @ 15:00 to Jan-22 @ 18:00
TEMPO 2215/2218 7000 -SHRA BKN018
Visibility Clouds Conditions
7,001 meters
  • Broken at 1,800' AGL
  • Light Rain
TAF EGVP 221341Z 2215/2224 25008KT 9999 FEW010 SCT025 TEMPO 2215/2218 7000 -SHRA BKN018 PROB30 TEMPO 2215/2217 4000 SHRASN BKN010CB
Issued Jan-22 @ 13:41 UTC
(4 hours ago)
Valid From Jan-22 @ 15:00 UTC
(3 hours ago)
Valid To Jan-23 @ 00:00 UTC
(in 6 hours)
Jan-22 @ 15:00 - Jan-23 @ 00:00
Wind Visibility
250° at 8 knots 10,000+ meters
Clouds
  • Few at 1,000' AGL
  • Scattered at 2,500' AGL
Jan-22 @ 15:00 - Jan-22 @ 17:00
Clouds
  • Broken at 1,000' AGL
Conditions
  • Rain
  • Snow
Temporary Jan-22 @ 15:00 - Jan-22 @ 18:00
Clouds
  • Broken at 1,800' AGL
Conditions
  • Light Rain